Time;durP1;ratioP1;P1;durP2;ratioP2;P2;SDS_P1;SDS_P2;PMS_P1;PMS_P2;Temp;Humidity;BMP_temperature;BMP_pressure;BME280_temperature;BME280_humidity;BME280_pressure;Samples;Min_cycle;Max_cycle;Signal;HPM_P1;HPM_P2
2022/04/14 00:01:32;;;;;;;15.18;12.05;;;;;;;;;;12657733;23;20201;-72
2022/04/14 00:06:33;;;;;;;17.65;13.15;;;;;;;;;;12660393;23;20256;-73
2022/04/14 00:11:34;;;;;;;16.67;12.25;;;;;;;;;;12657516;23;20196;-72
2022/04/14 00:16:35;;;;;;;14.60;11.85;;;;;;;;;;12658872;23;20502;-71
2022/04/14 00:21:36;;;;;;;18.08;13.23;;;;;;;;;;12635603;23;20216;-72
2022/04/14 00:26:37;;;;;;;18.00;13.88;;;;;;;;;;12660894;23;20244;-71
2022/04/14 00:31:39;;;;;;;17.90;13.65;;;;;;;;;;12658553;23;20720;-71
2022/04/14 00:36:40;;;;;;;14.30;12.82;;;;;;;;;;12660523;23;20213;-72
2022/04/14 00:41:41;;;;;;;17.13;12.60;;;;;;;;;;12658506;23;20976;-72
2022/04/14 00:46:42;;;;;;;18.48;11.65;;;;;;;;;;12660208;23;20184;-69
2022/04/14 00:51:43;;;;;;;13.13;11.77;;;;;;;;;;12659752;23;20197;-72
2022/04/14 00:56:44;;;;;;;19.05;12.00;;;;;;;;;;12658927;23;20260;-72
2022/04/14 01:01:45;;;;;;;14.77;11.73;;;;;;;;;;12658085;23;20230;-71
2022/04/14 01:06:46;;;;;;;16.52;13.27;;;;;;;;;;12657882;23;20181;-71
2022/04/14 01:11:48;;;;;;;16.30;12.70;;;;;;;;;;12655040;23;20525;-72
2022/04/14 01:16:49;;;;;;;14.20;12.75;;;;;;;;;;12656413;23;20185;-71
2022/04/14 01:22:15;;;;;;;13.32;11.85;;;;;;;;;;12659074;23;20181;-71
2022/04/14 01:27:16;;;;;;;16.98;11.85;;;;;;;;;;12642024;23;20204;-72
2022/04/14 01:32:17;;;;;;;17.13;9.98;;;;;;;;;;12631126;23;20201;-71
2022/04/14 01:37:18;;;;;;;12.63;8.52;;;;;;;;;;12658934;23;20764;-71
2022/04/14 01:42:19;;;;;;;10.15;7.10;;;;;;;;;;12656614;23;20725;-71
2022/04/14 01:47:20;;;;;;;7.53;5.72;;;;;;;;;;12659451;23;20252;-71
2022/04/14 01:52:21;;;;;;;8.27;5.28;;;;;;;;;;12657759;23;20200;-71
2022/04/14 01:57:22;;;;;;;7.07;3.95;;;;;;;;;;12661939;23;20487;-72
2022/04/14 02:02:23;;;;;;;3.38;3.17;;;;;;;;;;12631464;23;20200;-71
2022/04/14 02:07:25;;;;;;;3.65;3.08;;;;;;;;;;12628470;23;20257;-72
2022/04/14 02:12:26;;;;;;;3.95;3.35;;;;;;;;;;12659842;23;20569;-72
2022/04/14 02:17:27;;;;;;;3.30;3.00;;;;;;;;;;12661612;23;20514;-72
2022/04/14 02:22:28;;;;;;;3.35;3.00;;;;;;;;;;12636456;23;20653;-72
2022/04/14 02:27:29;;;;;;;3.60;3.20;;;;;;;;;;12636373;23;20169;-72
2022/04/14 02:32:30;;;;;;;2.92;2.72;;;;;;;;;;12660586;23;20212;-73
2022/04/14 02:37:31;;;;;;;3.72;3.42;;;;;;;;;;12662313;23;20184;-70
2022/04/14 02:42:32;;;;;;;2.70;2.60;;;;;;;;;;12661471;23;20208;-73
2022/04/14 02:47:35;;;;;;;4.85;3.78;;;;;;;;;;12660568;23;20223;-72
2022/04/14 02:52:36;;;;;;;4.82;3.00;;;;;;;;;;12660217;23;20660;-71
2022/04/14 02:57:37;;;;;;;7.40;6.63;;;;;;;;;;12661903;23;20240;-72
2022/04/14 03:02:41;;;;;;;9.70;8.73;;;;;;;;;;12658654;23;20196;-72
2022/04/14 03:07:42;;;;;;;6.22;5.70;;;;;;;;;;12661270;23;20292;-72
2022/04/14 03:12:46;;;;;;;5.38;4.00;;;;;;;;;;12660944;23;20196;-72
2022/04/14 03:17:50;;;;;;;5.43;4.18;;;;;;;;;;12660135;23;20197;-72
2022/04/14 03:22:51;;;;;;;7.38;3.83;;;;;;;;;;12661927;23;20219;-72
2022/04/14 03:27:52;;;;;;;5.13;4.43;;;;;;;;;;12634492;23;20227;-72
2022/04/14 03:32:53;;;;;;;5.97;4.20;;;;;;;;;;12659564;23;20237;-73
2022/04/14 03:37:54;;;;;;;4.28;3.70;;;;;;;;;;12661710;23;20181;-73
2022/04/14 03:42:56;;;;;;;5.47;4.88;;;;;;;;;;12659969;23;20204;-73
2022/04/14 03:47:57;;;;;;;6.55;5.70;;;;;;;;;;12635717;23;20181;-72
2022/04/14 03:52:58;;;;;;;6.00;5.50;;;;;;;;;;12660982;23;20208;-71
2022/04/14 03:57:59;;;;;;;8.73;5.70;;;;;;;;;;12661794;23;20181;-72
2022/04/14 04:03:00;;;;;;;5.70;5.30;;;;;;;;;;12659310;23;20603;-71
2022/04/14 04:08:01;;;;;;;6.05;5.47;;;;;;;;;;12633521;23;20180;-72
2022/04/14 04:13:02;;;;;;;8.55;6.63;;;;;;;;;;12632332;23;20208;-73
2022/04/14 04:18:04;;;;;;;9.32;7.28;;;;;;;;;;12657369;23;20204;-73
2022/04/14 04:23:06;;;;;;;6.95;6.25;;;;;;;;;;12654164;23;20189;-73
2022/04/14 04:28:07;;;;;;;7.20;6.22;;;;;;;;;;12657639;23;20176;-72
2022/04/14 04:33:08;;;;;;;6.22;5.82;;;;;;;;;;12655473;23;20307;-72
2022/04/14 04:38:09;;;;;;;9.80;6.18;;;;;;;;;;12658348;23;20209;-73
2022/04/14 04:43:10;;;;;;;6.30;5.63;;;;;;;;;;12656206;23;20209;-73
2022/04/14 04:48:11;;;;;;;6.72;6.03;;;;;;;;;;12656532;23;20181;-73
2022/04/14 04:53:12;;;;;;;6.60;6.18;;;;;;;;;;12655974;23;20513;-73
2022/04/14 04:58:14;;;;;;;8.32;6.28;;;;;;;;;;12659586;23;20172;-73
2022/04/14 05:03:15;;;;;;;6.70;6.05;;;;;;;;;;12657840;23;20212;-73
2022/04/14 05:08:16;;;;;;;6.25;5.55;;;;;;;;;;12633557;23;20235;-73
2022/04/14 05:13:17;;;;;;;4.78;4.47;;;;;;;;;;12659421;23;20244;-73
2022/04/14 05:18:18;;;;;;;6.03;5.53;;;;;;;;;;12659537;23;20243;-73
2022/04/14 05:23:19;;;;;;;5.75;5.13;;;;;;;;;;12632888;23;20325;-73
2022/04/14 05:28:20;;;;;;;6.35;4.97;;;;;;;;;;12658920;23;20177;-73
2022/04/14 05:33:21;;;;;;;5.97;5.35;;;;;;;;;;12657783;23;20219;-73
2022/04/14 05:38:23;;;;;;;6.50;5.88;;;;;;;;;;12659462;23;20187;-73
2022/04/14 05:43:26;;;;;;;6.93;6.10;;;;;;;;;;12657294;23;20208;-74
2022/04/14 05:48:27;;;;;;;14.25;6.30;;;;;;;;;;12660803;23;20264;-74
2022/04/14 05:53:29;;;;;;;6.43;6.00;;;;;;;;;;12658873;23;20193;-74
2022/04/14 05:58:30;;;;;;;7.65;6.95;;;;;;;;;;12660431;23;20259;-73
2022/04/14 06:03:31;;;;;;;8.82;7.15;;;;;;;;;;12658353;23;20264;-73
2022/04/14 06:08:32;;;;;;;7.05;6.32;;;;;;;;;;12657138;23;20561;-73
2022/04/14 06:13:37;;;;;;;6.78;6.10;;;;;;;;;;12657929;23;20578;-73
2022/04/14 06:18:38;;;;;;;7.10;6.40;;;;;;;;;;12659017;23;20226;-75
2022/04/14 06:23:39;;;;;;;6.40;5.80;;;;;;;;;;12658488;23;20226;-73
2022/04/14 06:28:42;;;;;;;6.07;5.50;;;;;;;;;;12658826;23;20189;-73
2022/04/14 06:33:44;;;;;;;6.22;5.20;;;;;;;;;;12657855;23;20208;-73
2022/04/14 06:38:45;;;;;;;5.25;4.88;;;;;;;;;;12659026;23;20279;-73
2022/04/14 06:43:49;;;;;;;6.28;5.15;;;;;;;;;;12662998;23;20303;-74
2022/04/14 06:48:50;;;;;;;8.80;5.57;;;;;;;;;;12661976;23;20666;-73
2022/04/14 06:53:51;;;;;;;8.02;4.90;;;;;;;;;;12685341;23;20717;-73
2022/04/14 06:58:52;;;;;;;4.18;3.88;;;;;;;;;;12661418;23;20173;-72
2022/04/14 07:03:54;;;;;;;4.97;4.65;;;;;;;;;;12661057;23;20252;-73
2022/04/14 07:08:56;;;;;;;4.80;4.50;;;;;;;;;;12683786;23;20193;-74
2022/04/14 07:13:58;;;;;;;4.72;4.43;;;;;;;;;;12657293;23;20196;-74
2022/04/14 07:18:59;;;;;;;4.10;3.78;;;;;;;;;;12656817;23;20502;-75
2022/04/14 07:24:00;;;;;;;4.70;4.07;;;;;;;;;;12659127;23;20183;-74
2022/04/14 07:29:01;;;;;;;4.90;4.45;;;;;;;;;;12657466;23;20180;-75
2022/04/14 07:34:06;;;;;;;4.72;4.32;;;;;;;;;;12658064;23;20262;-74
2022/04/14 07:39:09;;;;;;;5.57;5.28;;;;;;;;;;12659195;23;20193;-74
2022/04/14 07:44:10;;;;;;;10.20;6.57;;;;;;;;;;12598687;23;20189;-74
2022/04/14 07:49:11;;;;;;;11.32;10.15;;;;;;;;;;12599057;23;20181;-75
2022/04/14 07:54:12;;;;;;;8.38;6.90;;;;;;;;;;12598728;23;20662;-74
2022/04/14 07:59:13;;;;;;;7.85;6.78;;;;;;;;;;12572871;23;20184;-73
2022/04/14 08:04:14;;;;;;;8.00;7.30;;;;;;;;;;12598915;23;20201;-73
2022/04/14 08:09:15;;;;;;;8.80;6.95;;;;;;;;;;12597969;23;20444;-75
2022/04/14 08:14:17;;;;;;;9.52;8.73;;;;;;;;;;12595003;23;20206;-74
2022/04/14 08:19:18;;;;;;;10.82;8.85;;;;;;;;;;12599105;23;20654;-73
2022/04/14 08:24:19;;;;;;;9.35;8.00;;;;;;;;;;12598904;23;20253;-72
2022/04/14 08:29:20;;;;;;;11.95;7.93;;;;;;;;;;12597466;23;20517;-72
2022/04/14 08:34:21;;;;;;;12.75;8.50;;;;;;;;;;12597151;23;20304;-72
2022/04/14 08:39:22;;;;;;;14.00;8.35;;;;;;;;;;12599523;23;20194;-71
2022/04/14 08:44:27;;;;;;;7.43;6.82;;;;;;;;;;12598637;23;20181;-73
2022/04/14 08:49:30;;;;;;;7.28;6.63;;;;;;;;;;12599225;23;20173;-74
2022/04/14 08:54:31;;;;;;;6.85;6.00;;;;;;;;;;12598240;23;20189;-73
2022/04/14 08:59:32;;;;;;;8.73;6.10;;;;;;;;;;12599104;23;20184;-73
2022/04/14 09:04:38;;;;;;;5.60;5.22;;;;;;;;;;12592906;23;20667;-72
2022/04/14 09:09:40;;;;;;;6.88;5.90;;;;;;;;;;12598705;23;20186;-72
2022/04/14 09:14:41;;;;;;;6.53;5.93;;;;;;;;;;12594952;23;20229;-72
2022/04/14 09:19:42;;;;;;;9.77;6.72;;;;;;;;;;12571603;23;20212;-72
2022/04/14 09:24:47;;;;;;;8.30;6.75;;;;;;;;;;12597401;23;20537;-71
2022/04/14 09:29:49;;;;;;;7.30;6.65;;;;;;;;;;12596870;23;20189;-72
2022/04/14 09:34:51;;;;;;;7.20;6.50;;;;;;;;;;12593548;23;20263;-72
2022/04/14 09:40:02;;;;;;;7.70;7.10;;;;;;;;;;12577606;23;20681;-71
2022/04/14 09:45:22;;;;;;;8.35;7.55;;;;;;;;;;12653289;23;20230;-72
2022/04/14 09:50:27;;;;;;;7.50;6.90;;;;;;;;;;12657708;23;20196;-73
2022/04/14 09:55:28;;;;;;;7.50;6.82;;;;;;;;;;12654939;23;20235;-73
2022/04/14 10:00:45;;;;;;;7.22;6.45;;;;;;;;;;12654174;23;20181;-73
2022/04/14 10:05:46;;;;;;;7.50;6.70;;;;;;;;;;12627181;23;20188;-72
2022/04/14 10:10:48;;;;;;;6.82;6.22;;;;;;;;;;12654208;23;20192;-72
2022/04/14 10:15:49;;;;;;;8.13;7.53;;;;;;;;;;12656785;23;20188;-72
2022/04/14 10:20:50;;;;;;;8.23;7.55;;;;;;;;;;12662879;23;20488;-70
2022/04/14 10:25:53;;;;;;;9.35;8.45;;;;;;;;;;12636642;23;20177;-70
2022/04/14 10:30:57;;;;;;;9.38;8.55;;;;;;;;;;12660614;23;20230;-71
2022/04/14 10:35:58;;;;;;;9.52;8.57;;;;;;;;;;12659931;23;20252;-69
2022/04/14 10:41:01;;;;;;;12.57;9.55;;;;;;;;;;12631782;23;20284;-70
2022/04/14 10:46:02;;;;;;;9.13;8.35;;;;;;;;;;12659216;23;20267;-72
2022/04/14 10:51:27;;;;;;;8.73;8.10;;;;;;;;;;12658542;23;20200;-72
2022/04/14 10:56:34;;;;;;;7.30;6.75;;;;;;;;;;12660909;23;20935;-72
2022/04/14 11:01:50;;;;;;;4.88;4.68;;;;;;;;;;12658311;23;20594;-72
2022/04/14 11:06:52;;;;;;;6.05;5.70;;;;;;;;;;12660149;23;20188;-72
2022/04/14 11:12:00;;;;;;;5.85;5.40;;;;;;;;;;12660216;23;20201;-71
2022/04/14 11:17:03;;;;;;;5.70;5.45;;;;;;;;;;12659347;23;20177;-72
2022/04/14 11:22:05;;;;;;;6.55;6.05;;;;;;;;;;12631786;23;20173;-74
2022/04/14 11:27:11;;;;;;;6.95;6.55;;;;;;;;;;12659526;23;20184;-71
2022/04/14 11:32:13;;;;;;;6.10;5.60;;;;;;;;;;12658235;23;20200;-71
2022/04/14 11:37:32;;;;;;;5.40;5.18;;;;;;;;;;12657665;23;20181;-72
2022/04/14 11:42:35;;;;;;;5.00;4.80;;;;;;;;;;12654972;23;20670;-72
2022/04/14 11:47:37;;;;;;;5.20;4.80;;;;;;;;;;12656229;23;20211;-72
2022/04/14 11:52:40;;;;;;;5.95;5.60;;;;;;;;;;12656717;23;20207;-72
2022/04/14 11:57:47;;;;;;;3.90;3.60;;;;;;;;;;12656868;23;20623;-72
2022/04/14 12:02:57;;;;;;;5.10;4.57;;;;;;;;;;12658086;23;20228;-73
2022/04/14 12:08:08;;;;;;;3.88;3.67;;;;;;;;;;12658777;23;20185;-71
2022/04/14 12:13:10;;;;;;;5.20;4.70;;;;;;;;;;12659369;23;20216;-72
2022/04/14 12:18:12;;;;;;;3.83;3.63;;;;;;;;;;12658531;23;20180;-73
2022/04/14 12:23:13;;;;;;;5.18;4.88;;;;;;;;;;12658425;23;20189;-73
2022/04/14 12:28:14;;;;;;;6.75;6.20;;;;;;;;;;12658347;23;20251;-72
2022/04/14 12:33:15;;;;;;;6.22;5.78;;;;;;;;;;12629776;23;20213;-72
2022/04/14 12:38:21;;;;;;;6.82;6.40;;;;;;;;;;12657139;23;20232;-72
2022/04/14 12:43:31;;;;;;;7.05;6.45;;;;;;;;;;12658068;23;20303;-72
2022/04/14 12:48:36;;;;;;;5.75;5.45;;;;;;;;;;12658993;23;20188;-73
2022/04/14 12:53:37;;;;;;;4.78;4.53;;;;;;;;;;12657949;23;20828;-72
2022/04/14 12:58:39;;;;;;;4.55;4.35;;;;;;;;;;12657512;23;20195;-72
2022/04/14 13:03:47;;;;;;;4.75;4.55;;;;;;;;;;12655355;23;20208;-72
2022/04/14 13:08:48;;;;;;;5.10;4.90;;;;;;;;;;12656628;23;20243;-73
2022/04/14 13:13:49;;;;;;;6.90;6.50;;;;;;;;;;12656796;23;20347;-70
2022/04/14 13:18:50;;;;;;;4.35;4.05;;;;;;;;;;12657024;23;20209;-71
2022/04/14 13:23:51;;;;;;;4.35;4.15;;;;;;;;;;12630411;23;20634;-73
2022/04/14 13:28:52;;;;;;;7.93;7.25;;;;;;;;;;12654214;23;20189;-73
2022/04/14 13:33:53;;;;;;;9.35;8.55;;;;;;;;;;12651255;23;20595;-73
2022/04/14 13:38:54;;;;;;;8.75;7.97;;;;;;;;;;12657016;23;20185;-73
2022/04/14 13:43:56;;;;;;;6.80;6.22;;;;;;;;;;12630135;23;20271;-72
2022/04/14 13:48:57;;;;;;;5.57;5.13;;;;;;;;;;12655140;23;20181;-73
2022/04/14 13:53:58;;;;;;;5.68;5.18;;;;;;;;;;12659120;23;20519;-72
2022/04/14 13:58:59;;;;;;;7.43;6.82;;;;;;;;;;12659450;23;20211;-73
2022/04/14 14:04:00;;;;;;;5.85;5.40;;;;;;;;;;12657387;23;20574;-73
2022/04/14 14:09:01;;;;;;;7.03;6.38;;;;;;;;;;12659730;23;20185;-73
2022/04/14 14:14:05;;;;;;;5.03;4.63;;;;;;;;;;12657611;23;20201;-73
2022/04/14 14:19:07;;;;;;;5.75;5.45;;;;;;;;;;12636867;23;20861;-73
2022/04/14 14:24:08;;;;;;;10.38;8.98;;;;;;;;;;12658200;23;20653;-72
2022/04/14 14:29:10;;;;;;;10.48;9.57;;;;;;;;;;12661217;23;20184;-73
2022/04/14 14:34:11;;;;;;;7.03;6.47;;;;;;;;;;12659732;23;20208;-71
2022/04/14 14:39:13;;;;;;;8.77;7.80;;;;;;;;;;12659404;23;20829;-72
2022/04/14 14:44:14;;;;;;;7.35;6.88;;;;;;;;;;12659332;23;20219;-73
2022/04/14 14:49:15;;;;;;;7.60;7.00;;;;;;;;;;12658899;23;20220;-74
2022/04/14 14:54:16;;;;;;;6.97;6.35;;;;;;;;;;12660133;23;20185;-74
2022/04/14 14:59:17;;;;;;;7.75;7.15;;;;;;;;;;12657667;23;20181;-74
2022/04/14 15:04:19;;;;;;;7.65;6.88;;;;;;;;;;12657109;23;20205;-74
2022/04/14 15:09:21;;;;;;;8.52;7.82;;;;;;;;;;12656725;23;20184;-74
2022/04/14 15:14:22;;;;;;;10.05;8.50;;;;;;;;;;12658337;23;20204;-74
2022/04/14 15:19:23;;;;;;;9.48;8.60;;;;;;;;;;12659877;23;20248;-74
2022/04/14 15:24:24;;;;;;;11.25;10.27;;;;;;;;;;12661635;23;20264;-74
2022/04/14 15:29:25;;;;;;;12.13;11.13;;;;;;;;;;12659288;23;20894;-74
2022/04/14 15:34:26;;;;;;;12.98;11.85;;;;;;;;;;12658839;23;20228;-74
2022/04/14 15:39:27;;;;;;;13.13;11.82;;;;;;;;;;12658080;23;20637;-74
2022/04/14 15:44:31;;;;;;;11.82;10.70;;;;;;;;;;12657778;23;20197;-74
2022/04/14 15:49:32;;;;;;;13.30;12.05;;;;;;;;;;12659097;23;20189;-74
2022/04/14 15:54:33;;;;;;;10.85;9.93;;;;;;;;;;12652375;23;20222;-75
2022/04/14 15:59:34;;;;;;;11.27;10.13;;;;;;;;;;12653228;23;20963;-75
2022/04/14 16:04:35;;;;;;;11.70;10.40;;;;;;;;;;12652303;23;20765;-75
2022/04/14 16:14:56;;;;;;;6.82;4.03;;;;;;;;;;12655837;23;20275;-71
2022/04/14 16:19:58;;;;;;;4.28;3.35;;;;;;;;;;12656640;23;20669;-68
2022/04/14 16:24:59;;;;;;;4.88;4.35;;;;;;;;;;12657322;23;20193;-69
2022/04/14 16:30:00;;;;;;;4.80;4.40;;;;;;;;;;12656558;23;20212;-69
2022/04/14 16:35:01;;;;;;;5.07;4.78;;;;;;;;;;12652656;23;20243;-70
2022/04/14 16:40:06;;;;;;;4.47;4.28;;;;;;;;;;12653373;23;20512;-71
2022/04/14 16:45:07;;;;;;;4.43;4.13;;;;;;;;;;12651300;23;20181;-73
2022/04/14 16:50:09;;;;;;;4.60;4.30;;;;;;;;;;12658022;23;20190;-73
2022/04/14 16:55:12;;;;;;;4.55;4.15;;;;;;;;;;12657851;23;20268;-73
2022/04/14 17:00:15;;;;;;;4.90;4.55;;;;;;;;;;12656797;23;20203;-69
2022/04/14 17:05:16;;;;;;;5.97;5.45;;;;;;;;;;12655570;23;20204;-73
2022/04/14 17:10:17;;;;;;;42.50;28.98;;;;;;;;;;12656947;23;20269;-74
2022/04/14 17:15:18;;;;;;;60.63;39.15;;;;;;;;;;12656165;23;20685;-73
2022/04/14 17:20:19;;;;;;;35.65;23.33;;;;;;;;;;12652364;23;20181;-72
2022/04/14 17:25:25;;;;;;;20.63;17.67;;;;;;;;;;12656633;23;20193;-73
2022/04/14 17:30:26;;;;;;;20.08;15.88;;;;;;;;;;12652226;23;20217;-74
2022/04/14 17:35:27;;;;;;;10.65;9.55;;;;;;;;;;12654015;23;20712;-76
2022/04/14 17:40:28;;;;;;;10.05;9.07;;;;;;;;;;12657017;23;20207;-75
2022/04/14 17:45:31;;;;;;;13.45;12.15;;;;;;;;;;12628106;23;20192;-70
2022/04/14 17:50:34;;;;;;;18.85;16.55;;;;;;;;;;12655291;23;20208;-72
2022/04/14 17:55:35;;;;;;;16.02;14.30;;;;;;;;;;12656911;23;21018;-73
2022/04/14 18:00:37;;;;;;;18.90;15.10;;;;;;;;;;12654826;23;20288;-74
2022/04/14 18:05:39;;;;;;;16.23;14.63;;;;;;;;;;12656005;23;20185;-72
2022/04/14 18:10:40;;;;;;;18.88;15.93;;;;;;;;;;12654655;23;20740;-73
2022/04/14 18:15:41;;;;;;;16.02;14.63;;;;;;;;;;12654770;23;20185;-75
2022/04/14 18:20:43;;;;;;;17.95;15.98;;;;;;;;;;12654589;23;20180;-74
2022/04/14 18:25:44;;;;;;;16.58;14.40;;;;;;;;;;12653320;23;20180;-71
2022/04/14 18:30:47;;;;;;;17.92;14.13;;;;;;;;;;12656244;23;20201;-74
2022/04/14 18:35:49;;;;;;;18.75;16.17;;;;;;;;;;12654270;23;20188;-73
2022/04/14 18:40:50;;;;;;;18.67;16.80;;;;;;;;;;12658184;23;20216;-73
2022/04/14 18:45:51;;;;;;;15.98;13.63;;;;;;;;;;12637345;23;20808;-79
2022/04/14 18:50:52;;;;;;;12.45;11.05;;;;;;;;;;12662071;23;20204;-80
2022/04/14 18:55:53;;;;;;;11.43;10.05;;;;;;;;;;12658420;23;20476;-74
2022/04/14 19:00:54;;;;;;;11.07;10.07;;;;;;;;;;12655157;23;20200;-74
2022/04/14 19:05:55;;;;;;;11.50;10.32;;;;;;;;;;12660297;23;20205;-75
2022/04/14 19:10:56;;;;;;;12.02;9.90;;;;;;;;;;12663392;23;20184;-74
2022/04/14 19:15:57;;;;;;;12.30;10.15;;;;;;;;;;12662046;23;20181;-76
2022/04/14 19:20:58;;;;;;;12.60;11.50;;;;;;;;;;12660538;23;20215;-74
2022/04/14 19:26:00;;;;;;;11.95;10.90;;;;;;;;;;12665797;23;20219;-73
2022/04/14 19:31:01;;;;;;;16.60;15.02;;;;;;;;;;12658245;23;20209;-74
2022/04/14 19:36:02;;;;;;;13.55;12.40;;;;;;;;;;12633607;23;20199;-80
2022/04/14 19:41:03;;;;;;;16.83;15.10;;;;;;;;;;12637989;23;20204;-80
2022/04/14 19:46:05;;;;;;;16.95;15.45;;;;;;;;;;12661509;23;20659;-74
2022/04/14 19:51:07;;;;;;;18.17;16.30;;;;;;;;;;12661992;23;20295;-76
2022/04/14 19:56:10;;;;;;;17.15;15.40;;;;;;;;;;12664376;23;20185;-76
2022/04/14 20:01:11;;;;;;;17.05;15.35;;;;;;;;;;12663498;23;20215;-76
2022/04/14 20:06:12;;;;;;;21.83;19.77;;;;;;;;;;12661291;23;20184;-75
2022/04/14 20:11:13;;;;;;;20.35;18.38;;;;;;;;;;12666633;23;20247;-79
2022/04/14 20:16:14;;;;;;;19.73;17.63;;;;;;;;;;12659687;23;20175;-75
2022/04/14 20:21:15;;;;;;;23.00;20.15;;;;;;;;;;12663925;23;20742;-77
2022/04/14 20:26:16;;;;;;;23.70;19.13;;;;;;;;;;12666433;23;20177;-77
2022/04/14 20:31:17;;;;;;;21.33;17.98;;;;;;;;;;12667202;23;20209;-77
2022/04/14 20:36:18;;;;;;;18.60;16.55;;;;;;;;;;12668085;23;20234;-77
2022/04/14 20:41:20;;;;;;;18.23;16.42;;;;;;;;;;12669369;23;20216;-78
2022/04/14 20:46:21;;;;;;;20.65;17.98;;;;;;;;;;12670762;23;20184;-78
2022/04/14 20:51:22;;;;;;;20.25;18.20;;;;;;;;;;12669701;23;20215;-79
2022/04/14 20:56:25;;;;;;;18.30;16.23;;;;;;;;;;12673577;23;20181;-78
2022/04/14 21:01:30;;;;;;;18.17;16.27;;;;;;;;;;12669425;23;20205;-78
2022/04/14 21:06:31;;;;;;;18.42;16.63;;;;;;;;;;12670123;23;20177;-78
2022/04/14 21:11:32;;;;;;;17.27;15.55;;;;;;;;;;12666344;23;20189;-77
2022/04/14 21:16:33;;;;;;;19.70;17.65;;;;;;;;;;12660741;23;20189;-78
2022/04/14 21:21:34;;;;;;;21.77;16.17;;;;;;;;;;12668298;23;20212;-78
2022/04/14 21:26:35;;;;;;;20.27;16.48;;;;;;;;;;12641990;23;20594;-78
2022/04/14 21:31:36;;;;;;;19.00;17.00;;;;;;;;;;12662729;23;20205;-78
2022/04/14 21:36:37;;;;;;;23.73;19.73;;;;;;;;;;12666119;23;20177;-77
2022/04/14 21:41:39;;;;;;;23.70;20.13;;;;;;;;;;12663474;23;20339;-77
2022/04/14 21:46:41;;;;;;;23.52;20.65;;;;;;;;;;12643736;23;20185;-77
2022/04/14 21:51:42;;;;;;;30.65;22.50;;;;;;;;;;12672368;23;20199;-78
2022/04/14 21:56:43;;;;;;;28.25;22.92;;;;;;;;;;12669899;23;20183;-77
2022/04/14 22:01:44;;;;;;;28.98;23.73;;;;;;;;;;12667993;23;20204;-78
2022/04/14 22:06:46;;;;;;;30.00;23.90;;;;;;;;;;12669629;23;20185;-76
2022/04/14 22:11:47;;;;;;;33.85;25.17;;;;;;;;;;12670475;23;20189;-78
2022/04/14 22:16:48;;;;;;;36.85;25.90;;;;;;;;;;12671623;23;20173;-78
2022/04/14 22:21:49;;;;;;;30.08;24.90;;;;;;;;;;12670839;23;20181;-77
2022/04/14 22:26:50;;;;;;;33.58;26.13;;;;;;;;;;12671235;23;20180;-78
2022/04/14 22:31:51;;;;;;;28.58;24.08;;;;;;;;;;12669165;23;20208;-77
2022/04/14 22:36:53;;;;;;;29.08;23.45;;;;;;;;;;12671915;23;20668;-78
2022/04/14 22:41:54;;;;;;;29.67;23.95;;;;;;;;;;12668692;23;20211;-79
2022/04/14 22:46:55;;;;;;;26.00;21.60;;;;;;;;;;12644957;23;20189;-78
2022/04/14 22:51:56;;;;;;;27.30;21.70;;;;;;;;;;12670181;23;20201;-77
2022/04/14 22:56:57;;;;;;;27.85;21.90;;;;;;;;;;12670844;23;20511;-77
2022/04/14 23:01:58;;;;;;;21.75;18.77;;;;;;;;;;12671111;23;20209;-78
2022/04/14 23:06:59;;;;;;;29.83;21.23;;;;;;;;;;12669496;23;20173;-77
2022/04/14 23:12:00;;;;;;;33.05;24.52;;;;;;;;;;12644683;23;20197;-78
2022/04/14 23:17:03;;;;;;;26.48;21.30;;;;;;;;;;12668636;23;20169;-77
2022/04/14 23:22:04;;;;;;;31.67;21.70;;;;;;;;;;12667133;23;20200;-77
2022/04/14 23:27:05;;;;;;;27.13;19.88;;;;;;;;;;12668483;23;20181;-76
2022/04/14 23:32:06;;;;;;;19.55;15.35;;;;;;;;;;12662803;23;20213;-75
2022/04/14 23:37:08;;;;;;;19.90;15.55;;;;;;;;;;12667707;23;20908;-77
2022/04/14 23:42:09;;;;;;;19.88;14.57;;;;;;;;;;12666492;23;20212;-76
2022/04/14 23:47:11;;;;;;;21.13;13.00;;;;;;;;;;12668044;23;20192;-77
2022/04/14 23:52:12;;;;;;;21.55;13.75;;;;;;;;;;12667241;23;20215;-76
2022/04/14 23:57:13;;;;;;;17.35;13.77;;;;;;;;;;12666121;23;20499;-76
